Time;durP1;ratioP1;P1;durP2;ratioP2;P2;SDS_P1;SDS_P2;PMS_P1;PMS_P2;Temp;Humidity;BMP_temperature;BMP_pressure;BME280_temperature;BME280_humidity;BME280_pressure;Samples;Min_cycle;Max_cycle;Signal;HPM_P1;HPM_P2
2022/06/21 00:02:19;;;;;;;10.02;6.53;;;18.40;99.90;;;;;;5216148;28;20036;-68
2022/06/21 00:04:54;;;;;;;8.70;5.72;;;18.40;99.90;;;;;;5192495;28;20217;-68
2022/06/21 00:07:28;;;;;;;9.30;5.78;;;18.40;99.90;;;;;;5209405;28;20038;-67
2022/06/21 00:10:00;;;;;;;11.73;6.38;;;18.40;99.90;;;;;;5212933;28;20056;-67
2022/06/21 00:12:36;;;;;;;13.75;6.72;;;18.40;99.90;;;;;;5214901;28;20072;-67
2022/06/21 00:15:13;;;;;;;11.25;6.88;;;18.40;99.90;;;;;;5214509;28;20046;-67
2022/06/21 00:17:48;;;;;;;9.82;7.15;;;18.40;99.90;;;;;;5216420;28;20045;-67
2022/06/21 00:20:24;;;;;;;12.98;6.50;;;18.30;99.90;;;;;;5214257;28;20048;-64
2022/06/21 00:22:55;;;;;;;9.43;6.63;;;18.30;99.90;;;;;;5213317;28;20048;-66
2022/06/21 00:25:32;;;;;;;9.75;7.07;;;18.30;99.90;;;;;;5181107;28;20048;-66
2022/06/21 00:28:07;;;;;;;11.52;7.47;;;18.30;99.90;;;;;;5198332;28;20050;-66
2022/06/21 00:30:42;;;;;;;8.90;6.78;;;18.30;99.90;;;;;;5213963;28;20040;-67
2022/06/21 00:33:22;;;;;;;12.75;7.38;;;18.30;99.90;;;;;;5215117;28;20034;-65
2022/06/21 00:36:06;;;;;;;11.15;6.85;;;18.30;99.90;;;;;;5213348;28;20037;-64
2022/06/21 00:38:43;;;;;;;10.27;6.60;;;18.30;99.90;;;;;;5214631;28;20348;-65
2022/06/21 00:41:44;;;;;;;10.05;7.30;;;18.40;99.90;;;;;;5213457;28;20072;-67
2022/06/21 00:44:27;;;;;;;13.85;8.35;;;18.40;99.90;;;;;;5178269;28;20041;-67
2022/06/21 00:47:20;;;;;;;11.80;7.53;;;18.40;99.90;;;;;;5214841;28;20052;-68
2022/06/21 00:50:22;;;;;;;13.23;7.15;;;18.30;99.90;;;;;;5218467;28;20042;-70
2022/06/21 00:53:21;;;;;;;8.38;6.07;;;18.10;99.90;;;;;;5223217;28;20044;-70
2022/06/21 00:56:13;;;;;;;8.77;6.28;;;17.90;99.90;;;;;;5205237;28;20056;-73
2022/06/21 00:58:45;;;;;;;7.55;5.53;;;17.50;99.90;;;;;;5205088;28;20047;-66
2022/06/21 01:01:42;;;;;;;13.70;5.93;;;17.30;99.90;;;;;;5215635;28;20056;-70
2022/06/21 01:04:16;;;;;;;8.38;5.05;;;17.20;99.90;;;;;;5188416;28;20063;-66
2022/06/21 01:06:54;;;;;;;8.73;6.47;;;17.20;99.90;;;;;;5197410;28;20037;-71
2022/06/21 01:09:50;;;;;;;12.68;6.25;;;17.10;99.90;;;;;;5212712;28;20034;-69
2022/06/21 01:12:51;;;;;;;11.05;6.65;;;17.00;99.90;;;;;;5214985;28;20029;-73
2022/06/21 01:15:29;;;;;;;8.15;6.03;;;17.00;99.90;;;;;;5214354;28;20038;-76
2022/06/21 01:18:06;;;;;;;9.48;6.43;;;17.00;99.90;;;;;;5214087;28;20044;-72
2022/06/21 01:20:45;;;;;;;11.20;5.80;;;16.80;99.90;;;;;;5197020;28;20033;-71
2022/06/21 01:23:58;;;;;;;9.98;6.70;;;16.80;99.90;;;;;;5196594;28;20060;-70
2022/06/21 01:26:48;;;;;;;8.82;6.20;;;16.80;99.90;;;;;;5211069;28;20250;-69
2022/06/21 01:29:25;;;;;;;9.50;6.05;;;16.80;99.90;;;;;;5198573;28;20042;-69
2022/06/21 01:32:05;;;;;;;10.00;6.47;;;16.80;99.90;;;;;;5197970;28;20211;-71
2022/06/21 01:34:39;;;;;;;7.18;5.13;;;16.80;99.90;;;;;;5180528;28;20042;-69
2022/06/21 01:37:25;;;;;;;7.05;5.53;;;16.70;99.90;;;;;;5165359;28;20048;-70
2022/06/21 01:40:36;;;;;;;6.93;5.13;;;16.60;99.90;;;;;;5197584;28;20223;-67
2022/06/21 01:43:14;;;;;;;7.82;4.38;;;16.60;99.90;;;;;;5199015;28;20034;-67
2022/06/21 01:45:58;;;;;;;5.90;4.28;;;16.60;99.90;;;;;;5197069;28;20093;-66
2022/06/21 01:48:46;;;;;;;5.20;3.88;;;16.60;99.90;;;;;;5196936;28;20032;-66
2022/06/21 01:55:41;;;;;;;6.20;3.53;;;16.60;99.90;;;;;;5197234;28;20029;-68
2022/06/21 01:58:28;;;;;;;3.80;3.00;;;16.50;99.90;;;;;;5197181;28;20044;-67
2022/06/21 02:01:22;;;;;;;3.47;3.10;;;16.50;99.90;;;;;;5181625;28;20299;-69
2022/06/21 02:04:02;;;;;;;3.95;3.55;;;16.50;99.90;;;;;;5196253;28;20037;-67
2022/06/21 02:06:38;;;;;;;3.83;3.42;;;16.40;99.90;;;;;;5180957;28;20045;-68
2022/06/21 02:09:27;;;;;;;3.25;2.70;;;16.40;99.90;;;;;;5196156;28;20045;-67
2022/06/21 02:12:10;;;;;;;4.30;3.78;;;16.40;99.90;;;;;;5165242;28;20026;-67
2022/06/21 02:14:57;;;;;;;4.25;3.35;;;16.30;99.90;;;;;;5194609;28;20034;-67
2022/06/21 02:17:40;;;;;;;3.17;2.88;;;16.30;99.90;;;;;;5195666;28;20044;-66
2022/06/21 02:20:33;;;;;;;3.13;2.83;;;16.30;99.90;;;;;;5179581;28;20257;-66
2022/06/21 02:23:06;;;;;;;3.25;2.90;;;16.30;99.90;;;;;;5196888;28;20030;-65
2022/06/21 02:25:39;;;;;;;4.43;2.88;;;16.40;99.90;;;;;;5179428;28;20045;-66
2022/06/21 02:28:17;;;;;;;3.28;2.90;;;16.30;99.90;;;;;;5197196;28;20037;-66
2022/06/21 02:30:54;;;;;;;3.22;2.90;;;16.30;99.90;;;;;;5197234;28;20042;-67
2022/06/21 02:33:32;;;;;;;4.20;2.50;;;16.20;99.90;;;;;;5196026;28;20040;-66
2022/06/21 02:36:19;;;;;;;3.25;2.42;;;16.20;99.90;;;;;;5180501;28;20053;-66
2022/06/21 02:38:56;;;;;;;3.17;2.40;;;16.20;99.90;;;;;;5197540;28;20040;-66
2022/06/21 02:41:37;;;;;;;2.83;2.50;;;16.00;99.90;;;;;;5180414;28;20041;-64
2022/06/21 02:44:40;;;;;;;2.97;2.22;;;16.00;99.90;;;;;;5196058;28;20048;-64
2022/06/21 02:47:29;;;;;;;3.45;2.20;;;16.00;99.90;;;;;;5197584;28;20230;-64
2022/06/21 02:50:48;;;;;;;2.50;2.03;;;15.90;99.90;;;;;;5196961;28;20025;-64
2022/06/21 02:53:35;;;;;;;2.67;2.10;;;15.90;99.90;;;;;;5196310;28;20052;-66
2022/06/21 02:56:16;;;;;;;1.70;1.50;;;15.80;99.90;;;;;;5181100;28;20046;-65
2022/06/21 02:58:55;;;;;;;2.40;1.60;;;15.70;99.90;;;;;;5196562;28;20200;-64
2022/06/21 03:01:50;;;;;;;1.85;1.70;;;15.70;99.90;;;;;;5179232;28;20341;-65
2022/06/21 03:04:35;;;;;;;2.17;1.70;;;15.70;99.90;;;;;;5186932;28;20034;-66
2022/06/21 03:07:18;;;;;;;1.70;1.60;;;15.60;99.90;;;;;;5181353;28;20038;-64
2022/06/21 03:09:55;;;;;;;1.30;1.20;;;15.50;99.90;;;;;;5195243;28;20041;-64
2022/06/21 03:12:30;;;;;;;1.60;1.50;;;15.50;99.90;;;;;;5196110;28;20030;-63
2022/06/21 03:15:09;;;;;;;2.80;1.80;;;15.50;99.90;;;;;;5196588;28;20042;-64
2022/06/21 03:18:05;;;;;;;1.40;1.30;;;15.40;99.90;;;;;;5179547;28;20056;-64
2022/06/21 03:20:44;;;;;;;1.33;1.23;;;15.30;99.90;;;;;;5181162;28;20092;-62
2022/06/21 03:23:22;;;;;;;1.00;1.00;;;15.20;99.90;;;;;;5199610;28;20038;-62
2022/06/21 03:26:02;;;;;;;0.95;0.95;;;15.20;99.90;;;;;;5182648;28;20042;-62
2022/06/21 03:28:45;;;;;;;0.93;0.93;;;15.10;99.90;;;;;;5199554;28;20041;-63
2022/06/21 03:31:32;;;;;;;0.90;0.90;;;15.10;99.90;;;;;;5182749;28;20033;-62
2022/06/21 03:34:10;;;;;;;1.35;1.25;;;15.10;99.90;;;;;;5182570;28;20226;-64
2022/06/21 03:36:45;;;;;;;1.10;1.10;;;15.00;99.90;;;;;;5200360;28;20042;-64
2022/06/21 03:42:20;;;;;;;1.08;1.08;;;14.90;99.90;;;;;;5214411;28;19937;-63
2022/06/21 03:45:12;;;;;;;1.02;1.00;;;14.80;99.90;;;;;;5199523;28;20352;-62
2022/06/21 03:48:01;;;;;;;1.15;1.13;;;14.80;99.90;;;;;;5198535;28;20042;-62
2022/06/21 03:51:00;;;;;;;1.00;1.00;;;14.80;99.90;;;;;;5197515;28;20198;-63
2022/06/21 03:53:50;;;;;;;1.20;1.08;;;14.80;99.90;;;;;;5194025;28;20136;-64
2022/06/21 03:56:35;;;;;;;1.27;1.20;;;14.80;99.90;;;;;;5198409;28;20052;-61
2022/06/21 03:59:33;;;;;;;1.50;1.40;;;14.70;99.90;;;;;;5214117;28;20044;-62
2022/06/21 04:02:30;;;;;;;2.28;1.30;;;14.70;99.90;;;;;;5197713;28;20054;-62
2022/06/21 04:05:37;;;;;;;2.17;1.10;;;14.80;99.90;;;;;;5209166;28;20049;-62
2022/06/21 04:08:30;;;;;;;1.30;1.20;;;14.70;99.90;;;;;;5202180;28;20041;-62
2022/06/21 04:11:37;;;;;;;1.13;1.13;;;14.70;99.90;;;;;;5198446;28;20255;-62
2022/06/21 04:15:07;;;;;;;2.17;1.38;;;14.80;99.90;;;;;;5213252;28;20311;-62
2022/06/21 04:18:03;;;;;;;1.10;1.10;;;14.70;99.90;;;;;;5197999;28;20029;-62
2022/06/21 04:21:03;;;;;;;1.13;1.05;;;14.80;99.90;;;;;;5181184;28;20048;-62
2022/06/21 04:23:46;;;;;;;6.38;1.38;;;14.80;99.90;;;;;;5180843;28;20029;-62
2022/06/21 04:26:41;;;;;;;3.95;1.60;;;14.80;99.90;;;;;;5171855;28;20137;-62
2022/06/21 04:29:33;;;;;;;1.38;1.27;;;14.90;99.90;;;;;;5196599;28;20044;-62
2022/06/21 04:32:34;;;;;;;1.23;1.13;;;14.90;99.90;;;;;;5165398;28;20038;-61
2022/06/21 04:35:25;;;;;;;1.13;1.10;;;15.00;99.90;;;;;;5176574;28;20034;-62
2022/06/21 04:38:06;;;;;;;3.40;1.42;;;15.00;99.90;;;;;;5179919;28;20077;-62
2022/06/21 04:41:30;;;;;;;1.30;1.20;;;15.10;99.90;;;;;;5179842;28;20040;-62
2022/06/21 04:44:17;;;;;;;1.10;1.00;;;15.10;99.90;;;;;;5176567;28;20063;-61
2022/06/21 04:47:20;;;;;;;1.40;1.30;;;15.20;99.90;;;;;;5182365;28;20045;-61
2022/06/21 04:50:14;;;;;;;1.73;1.17;;;15.30;99.90;;;;;;5196252;28;20045;-64
2022/06/21 04:53:14;;;;;;;1.65;1.20;;;15.40;99.90;;;;;;5197113;28;20060;-61
2022/06/21 04:56:33;;;;;;;0.90;0.90;;;15.50;99.90;;;;;;5212803;28;20231;-61
2022/06/21 04:59:34;;;;;;;0.95;0.95;;;15.80;99.90;;;;;;5198462;28;20030;-64
2022/06/21 05:02:17;;;;;;;2.30;1.35;;;15.90;99.90;;;;;;5197132;28;20044;-63
2022/06/21 05:05:05;;;;;;;5.03;1.27;;;15.90;99.90;;;;;;5208164;28;20067;-62
2022/06/21 05:08:11;;;;;;;1.23;1.13;;;16.10;99.90;;;;;;5214677;28;20030;-62
2022/06/21 05:10:54;;;;;;;1.55;1.45;;;16.30;99.90;;;;;;5213852;28;20056;-62
2022/06/21 05:13:40;;;;;;;0.93;0.93;;;16.20;99.90;;;;;;5213980;28;20042;-64
2022/06/21 05:16:36;;;;;;;1.38;0.90;;;16.10;99.90;;;;;;5213173;28;20034;-62
2022/06/21 05:19:18;;;;;;;;;;;16.10;99.90;;;;;;5198466;28;20044;-62
2022/06/21 05:22:16;;;;;;;1.00;1.00;;;16.20;99.90;;;;;;5197811;28;20197;-62
2022/06/21 05:24:51;;;;;;;1.10;1.00;;;16.30;99.90;;;;;;5190295;28;20041;-63
2022/06/21 05:27:38;;;;;;;;;;;16.50;99.90;;;;;;5199846;28;20311;-62
2022/06/21 05:30:50;;;;;;;2.30;0.88;;;16.40;99.90;;;;;;5205905;28;19909;-63
2022/06/21 05:33:44;;;;;;;0.80;0.80;;;16.50;99.90;;;;;;5206067;28;20052;-64
2022/06/21 05:36:27;;;;;;;0.82;0.82;;;16.60;99.90;;;;;;5210537;28;20069;-63
2022/06/21 05:39:07;;;;;;;1.25;1.15;;;16.60;99.90;;;;;;5208385;28;20036;-62
2022/06/21 05:41:44;;;;;;;1.15;1.05;;;16.60;99.90;;;;;;5209137;28;20026;-64
2022/06/21 05:44:46;;;;;;;0.68;0.68;;;16.80;99.90;;;;;;5203347;28;20254;-62
2022/06/21 05:47:38;;;;;;;1.00;1.00;;;16.60;99.90;;;;;;5200140;28;20052;-61
2022/06/21 05:50:26;;;;;;;1.23;1.00;;;16.50;99.90;;;;;;5186727;28;20044;-63
2022/06/21 05:53:34;;;;;;;1.20;1.10;;;17.10;99.90;;;;;;5186467;28;20323;-62
2022/06/21 05:56:29;;;;;;;2.78;1.17;;;17.10;99.90;;;;;;5207589;28;20223;-62
2022/06/21 05:59:13;;;;;;;;;;;17.20;99.90;;;;;;5202686;28;20026;-62
2022/06/21 06:02:12;;;;;;;0.70;0.70;;;17.30;99.90;;;;;;5190259;28;19909;-63
2022/06/21 06:04:55;;;;;;;1.10;1.00;;;17.50;99.90;;;;;;5184010;28;20041;-63
2022/06/21 06:07:43;;;;;;;1.42;1.00;;;17.40;99.90;;;;;;5202844;28;20202;-62
2022/06/21 06:10:17;;;;;;;3.30;0.82;;;17.40;99.90;;;;;;5212619;28;20051;-63
2022/06/21 06:12:59;;;;;;;1.27;1.10;;;17.50;99.90;;;;;;5213895;28;20042;-62
2022/06/21 06:15:39;;;;;;;2.45;0.80;;;17.50;99.90;;;;;;5211113;28;20030;-62
2022/06/21 06:18:48;;;;;;;1.35;1.10;;;17.30;99.90;;;;;;5210866;28;20040;-63
2022/06/21 06:21:28;;;;;;;0.80;0.80;;;17.60;99.90;;;;;;5197444;28;20032;-62
2022/06/21 06:24:13;;;;;;;1.40;1.30;;;17.60;99.90;;;;;;5178529;28;20287;-61
2022/06/21 06:26:54;;;;;;;1.27;0.98;;;17.40;99.90;;;;;;5174431;28;20378;-62
2022/06/21 06:29:38;;;;;;;1.58;0.95;;;17.20;99.90;;;;;;5174382;28;20038;-62
2022/06/21 06:32:33;;;;;;;1.20;0.97;;;17.10;99.90;;;;;;5190834;28;20051;-62
2022/06/21 06:35:21;;;;;;;6.28;1.15;;;17.00;99.90;;;;;;5176060;28;20046;-62
2022/06/21 06:37:53;;;;;;;0.80;0.80;;;17.40;99.90;;;;;;5178563;28;20034;-63
2022/06/21 06:40:36;;;;;;;3.33;0.98;;;17.80;99.90;;;;;;5175088;28;20293;-62
2022/06/21 06:43:24;;;;;;;1.95;0.90;;;17.80;99.90;;;;;;5192021;28;20311;-62
2022/06/21 06:45:58;;;;;;;1.38;0.88;;;17.80;99.90;;;;;;5188367;28;20028;-62
2022/06/21 06:48:33;;;;;;;1.83;1.00;;;18.00;99.90;;;;;;5188567;28;20340;-63
2022/06/21 06:51:45;;;;;;;1.10;1.00;;;18.10;99.90;;;;;;5158498;28;20033;-62
2022/06/21 06:54:34;;;;;;;1.63;1.52;;;18.10;99.90;;;;;;5157118;28;20030;-62
2022/06/21 06:57:40;;;;;;;1.08;1.00;;;18.30;99.90;;;;;;5142205;28;20057;-64
2022/06/21 07:00:20;;;;;;;0.95;0.95;;;17.90;99.90;;;;;;5135356;28;20369;-62
2022/06/21 07:03:06;;;;;;;2.33;1.15;;;17.70;99.90;;;;;;5135318;28;20053;-62
2022/06/21 07:06:25;;;;;;;1.48;1.15;;;18.20;99.90;;;;;;5107664;28;20251;-62
2022/06/21 07:09:08;;;;;;;0.90;0.90;;;18.00;99.90;;;;;;5114770;28;20039;-62
2022/06/21 07:11:40;;;;;;;1.05;1.02;;;18.30;99.90;;;;;;5135730;28;20308;-62
2022/06/21 07:14:24;;;;;;;1.75;1.13;;;18.40;99.90;;;;;;5134941;28;20178;-62
2022/06/21 07:17:39;;;;;;;1.33;1.23;;;18.60;99.90;;;;;;5113871;28;20042;-61
2022/06/21 07:20:25;;;;;;;1.25;1.08;;;18.50;99.90;;;;;;5117856;28;20039;-63
2022/06/21 07:22:57;;;;;;;1.85;1.17;;;18.60;99.90;;;;;;5131954;28;20035;-62
2022/06/21 07:25:44;;;;;;;1.15;1.05;;;18.60;99.90;;;;;;5128709;28;20353;-62
2022/06/21 07:28:37;;;;;;;0.90;0.90;;;18.60;99.90;;;;;;5106853;28;20167;-62
2022/06/21 07:31:37;;;;;;;1.58;1.10;;;19.00;99.90;;;;;;5113341;28;20051;-62
2022/06/21 07:34:25;;;;;;;2.28;0.85;;;19.30;99.90;;;;;;5112281;29;20035;-61
2022/06/21 07:37:12;;;;;;;0.88;0.88;;;19.20;99.90;;;;;;5121441;28;20219;-61
2022/06/21 07:39:59;;;;;;;1.10;1.00;;;19.10;99.90;;;;;;5183489;28;20323;-61
2022/06/21 07:43:07;;;;;;;1.30;1.00;;;18.90;99.90;;;;;;5176660;28;20052;-61
2022/06/21 07:45:55;;;;;;;1.20;1.10;;;18.80;99.90;;;;;;5171386;28;20065;-63
2022/06/21 07:48:45;;;;;;;1.23;1.15;;;19.00;99.90;;;;;;5191588;28;20362;-62
2022/06/21 07:51:38;;;;;;;0.80;0.80;;;19.10;99.90;;;;;;5178095;28;20030;-61
2022/06/21 07:54:39;;;;;;;2.97;1.13;;;19.50;99.90;;;;;;5184577;28;20042;-60
2022/06/21 07:57:29;;;;;;;1.75;1.15;;;19.30;99.90;;;;;;5175359;28;20346;-61
2022/06/21 08:00:16;;;;;;;0.88;0.88;;;19.50;99.90;;;;;;5172164;28;20041;-61
2022/06/21 08:08:57;;;;;;;1.17;1.00;;;19.60;99.90;;;;;;5176603;28;20365;-62
2022/06/21 08:11:43;;;;;;;1.33;1.02;;;19.50;99.90;;;;;;5192203;28;20030;-62
2022/06/21 08:14:16;;;;;;;2.47;0.98;;;19.40;99.90;;;;;;5192352;28;20060;-61
2022/06/21 08:16:58;;;;;;;2.50;1.05;;;19.90;99.90;;;;;;5201201;28;20030;-62
2022/06/21 08:20:05;;;;;;;2.15;1.35;;;19.90;99.90;;;;;;5201369;28;20017;-61
2022/06/21 08:22:53;;;;;;;1.65;1.10;;;20.00;99.90;;;;;;5205483;28;20358;-61
2022/06/21 08:25:51;;;;;;;2.67;1.42;;;19.80;99.90;;;;;;5166637;28;20034;-61
2022/06/21 08:28:47;;;;;;;1.02;1.02;;;20.20;99.90;;;;;;5169096;28;20038;-61
2022/06/21 08:31:34;;;;;;;2.20;0.90;;;19.90;99.90;;;;;;5185879;28;20044;-62
2022/06/21 08:34:23;;;;;;;0.98;0.93;;;20.10;99.90;;;;;;5193207;28;20018;-64
2022/06/21 08:37:07;;;;;;;1.10;1.05;;;20.20;99.90;;;;;;5192420;28;20041;-61
2022/06/21 08:40:00;;;;;;;1.20;1.10;;;20.10;99.90;;;;;;5191885;28;20041;-63
2022/06/21 08:43:18;;;;;;;0.98;0.98;;;20.30;99.90;;;;;;5188088;28;20418;-62
2022/06/21 08:46:27;;;;;;;0.98;0.77;;;20.40;99.90;;;;;;5183182;28;20038;-61
2022/06/21 08:49:19;;;;;;;0.98;0.95;;;20.50;99.90;;;;;;5177966;28;20033;-61
2022/06/21 08:52:40;;;;;;;1.60;1.10;;;20.80;99.90;;;;;;5191533;28;20029;-61
2022/06/21 08:55:27;;;;;;;0.88;0.88;;;21.50;99.90;;;;;;5188948;28;20018;-62
2022/06/21 08:58:27;;;;;;;1.65;1.08;;;21.80;99.90;;;;;;5174923;28;20077;-62
2022/06/21 09:01:11;;;;;;;0.90;0.90;;;21.50;99.90;;;;;;5193215;28;20231;-63
2022/06/21 09:04:26;;;;;;;3.65;0.98;;;21.50;99.90;;;;;;5166445;28;20052;-61
2022/06/21 09:07:19;;;;;;;1.95;1.00;;;21.30;99.90;;;;;;5158005;28;20063;-61
2022/06/21 09:10:24;;;;;;;1.73;0.80;;;21.60;99.90;;;;;;5173947;28;20236;-63
2022/06/21 09:13:20;;;;;;;3.10;1.55;;;21.70;99.90;;;;;;5174471;28;20105;-63
2022/06/21 09:16:02;;;;;;;0.73;0.73;;;21.90;99.90;;;;;;5176273;28;20040;-61
2022/06/21 09:19:20;;;;;;;2.15;1.00;;;21.90;99.90;;;;;;5187594;28;20334;-63
2022/06/21 09:22:20;;;;;;;1.50;0.90;;;21.40;99.90;;;;;;5170823;28;20034;-62
2022/06/21 09:24:58;;;;;;;1.00;0.95;;;21.40;99.90;;;;;;5192536;28;20032;-62
2022/06/21 09:27:54;;;;;;;0.90;0.90;;;21.50;99.90;;;;;;5158945;28;20301;-62
2022/06/21 09:30:25;;;;;;;0.88;0.80;;;22.00;99.90;;;;;;5189569;28;20028;-61
2022/06/21 09:33:33;;;;;;;1.77;0.90;;;21.60;99.90;;;;;;5176079;28;20029;-61
2022/06/21 09:36:40;;;;;;;0.70;0.70;;;21.60;99.90;;;;;;5143387;28;20056;-63
2022/06/21 09:39:42;;;;;;;1.92;1.23;;;21.60;99.90;;;;;;5172580;28;20034;-62
2022/06/21 09:42:44;;;;;;;1.02;0.93;;;21.60;99.90;;;;;;5188547;28;20030;-62
2022/06/21 09:45:33;;;;;;;1.52;1.00;;;22.00;99.90;;;;;;5175536;28;20026;-62
2022/06/21 09:48:35;;;;;;;0.70;0.70;;;22.10;99.90;;;;;;5175371;28;20052;-61
2022/06/21 09:51:39;;;;;;;1.20;1.10;;;22.50;99.90;;;;;;5165263;28;20032;-61
2022/06/21 09:54:36;;;;;;;1.08;0.90;;;22.20;99.90;;;;;;5175026;28;20223;-62
2022/06/21 09:57:20;;;;;;;0.80;0.80;;;22.10;99.90;;;;;;5188917;28;20052;-61
2022/06/21 10:00:19;;;;;;;0.70;0.70;;;22.30;99.90;;;;;;5191576;28;20042;-60
2022/06/21 10:03:16;;;;;;;0.60;0.60;;;22.40;99.90;;;;;;5155856;28;20034;-60
2022/06/21 10:06:08;;;;;;;0.60;0.60;;;22.50;99.90;;;;;;5153844;28;20212;-62
2022/06/21 10:09:06;;;;;;;0.75;0.75;;;23.00;99.90;;;;;;5152413;28;20038;-60
2022/06/21 10:11:52;;;;;;;2.97;1.33;;;22.90;99.90;;;;;;5154790;28;20034;-61
2022/06/21 10:14:38;;;;;;;0.85;0.80;;;23.30;99.90;;;;;;5171192;28;20330;-61
2022/06/21 10:17:34;;;;;;;1.13;0.95;;;23.60;99.90;;;;;;5155383;28;20061;-61
2022/06/21 10:20:56;;;;;;;1.35;0.90;;;23.30;99.90;;;;;;5125909;28;20052;-61
2022/06/21 10:23:45;;;;;;;0.82;0.82;;;23.10;99.90;;;;;;5156924;28;20042;-63
2022/06/21 10:26:56;;;;;;;1.05;1.00;;;23.20;99.90;;;;;;5155936;28;20231;-62
2022/06/21 10:29:38;;;;;;;0.85;0.77;;;23.10;99.90;;;;;;5155324;28;20316;-62
2022/06/21 10:32:41;;;;;;;1.00;0.82;;;23.80;99.90;;;;;;5140618;28;20242;-61
2022/06/21 10:35:57;;;;;;;1.67;0.88;;;24.60;99.90;;;;;;5159848;28;20038;-61
2022/06/21 10:38:53;;;;;;;3.60;0.70;;;24.20;99.90;;;;;;5182650;28;20327;-61
2022/06/21 10:42:46;;;;;;;1.38;0.75;;;24.50;99.90;;;;;;5177010;28;20040;-61
2022/06/21 10:45:36;;;;;;;1.27;0.75;;;25.40;99.90;;;;;;5156307;28;20247;-61
2022/06/21 10:48:52;;;;;;;1.08;0.60;;;25.90;99.90;;;;;;5160118;28;20038;-61
2022/06/21 10:51:31;;;;;;;;;;;24.90;99.90;;;;;;5160839;28;20223;-61
2022/06/21 10:54:18;;;;;;;0.70;0.65;;;24.70;99.90;;;;;;5176862;28;20191;-62
2022/06/21 10:57:32;;;;;;;1.33;0.90;;;25.10;99.90;;;;;;5173461;28;20048;-61
2022/06/21 11:04:27;;;;;;;0.70;0.70;;;26.80;99.90;;;;;;5158804;28;20026;-61
2022/06/21 11:07:27;;;;;;;2.45;0.77;;;27.80;99.90;;;;;;5114234;28;20139;-62
2022/06/21 11:10:14;;;;;;;2.92;0.73;;;29.60;99.90;;;;;;5158590;28;20045;-62
2022/06/21 11:12:56;;;;;;;1.83;1.13;;;28.50;99.90;;;;;;5148047;28;20042;-62
2022/06/21 11:15:50;;;;;;;1.00;0.70;;;27.10;99.90;;;;;;5150532;28;20201;-63
2022/06/21 11:18:55;;;;;;;0.60;0.60;;;28.40;99.90;;;;;;5155763;28;20046;-63
2022/06/21 11:21:35;;;;;;;0.60;0.60;;;29.90;99.90;;;;;;5138034;28;20049;-62
2022/06/21 11:25:11;;;;;;;3.55;0.73;;;27.30;99.90;;;;;;5163804;28;20212;-61
2022/06/21 11:28:31;;;;;;;1.67;0.70;;;26.30;99.90;;;;;;5157713;28;20050;-61
2022/06/21 11:31:30;;;;;;;0.80;0.80;;;27.30;99.90;;;;;;5133886;28;20042;-61
2022/06/21 11:34:32;;;;;;;0.70;0.70;;;27.00;99.90;;;;;;5144741;28;20323;-62
2022/06/21 11:37:25;;;;;;;1.00;0.90;;;28.00;99.90;;;;;;5160131;28;20226;-62
2022/06/21 11:40:05;;;;;;;0.88;0.85;;;28.80;99.90;;;;;;5176025;28;20036;-61
2022/06/21 11:42:52;;;;;;;0.80;0.80;;;29.30;99.90;;;;;;5180000;28;20040;-61
2022/06/21 11:45:53;;;;;;;1.00;0.90;;;28.90;99.90;;;;;;5178573;28;20040;-61
2022/06/21 11:48:51;;;;;;;1.13;0.70;;;28.50;99.90;;;;;;5194631;28;20030;-62
2022/06/21 11:51:50;;;;;;;1.20;0.75;;;29.20;99.90;;;;;;5160298;28;20026;-63
2022/06/21 11:55:20;;;;;;;1.58;0.82;;;28.80;99.90;;;;;;5179285;28;20036;-62
2022/06/21 11:58:35;;;;;;;0.70;0.70;;;28.30;99.90;;;;;;5158346;28;20038;-62
2022/06/21 12:02:10;;;;;;;1.07;0.83;;;28.00;99.90;;;;;;5170202;28;20052;-62
2022/06/21 12:04:58;;;;;;;0.88;0.65;;;28.20;99.90;;;;;;5151379;28;20122;-62
2022/06/21 12:08:19;;;;;;;1.08;1.00;;;29.70;99.90;;;;;;5187387;28;20037;-62
2022/06/21 12:11:00;;;;;;;0.95;0.70;;;30.10;99.90;;;;;;5189732;28;20036;-63
2022/06/21 12:13:41;;;;;;;1.42;0.70;;;30.10;99.90;;;;;;5172743;28;20029;-63
2022/06/21 12:16:57;;;;;;;0.80;0.80;;;30.10;99.90;;;;;;5169868;28;20038;-63
2022/06/21 12:19:41;;;;;;;1.88;0.70;;;29.50;99.90;;;;;;5170240;28;20056;-61
2022/06/21 12:22:32;;;;;;;1.90;0.70;;;29.60;99.90;;;;;;5159133;28;20036;-62
2022/06/21 12:25:09;;;;;;;0.68;0.68;;;27.20;99.90;;;;;;5174387;28;20044;-62
2022/06/21 12:27:44;;;;;;;1.52;0.70;;;27.60;99.90;;;;;;5173745;28;20038;-62
2022/06/21 12:30:28;;;;;;;1.30;1.15;;;28.70;99.90;;;;;;5172651;28;20434;-61
2022/06/21 12:33:06;;;;;;;1.48;0.73;;;28.70;99.90;;;;;;5191186;28;20040;-61
2022/06/21 12:36:44;;;;;;;1.05;0.95;;;29.00;99.90;;;;;;5195372;28;20029;-62
2022/06/21 12:39:37;;;;;;;0.80;0.80;;;30.40;99.90;;;;;;5137951;28;20081;-62
2022/06/21 12:42:28;;;;;;;4.20;1.08;;;31.20;99.90;;;;;;5173964;28;20036;-63
2022/06/21 12:45:19;;;;;;;0.70;0.70;;;31.10;99.90;;;;;;5158822;28;20046;-62
2022/06/21 12:48:41;;;;;;;1.20;1.10;;;30.70;99.90;;;;;;5157070;28;20026;-62
2022/06/21 12:51:44;;;;;;;1.92;0.70;;;31.70;99.90;;;;;;5145445;28;20046;-62
2022/06/21 12:54:48;;;;;;;0.98;0.75;;;31.40;99.90;;;;;;5129365;28;20038;-62
2022/06/21 12:57:52;;;;;;;0.70;0.70;;;31.60;99.90;;;;;;5151141;28;20041;-62
2022/06/21 13:00:53;;;;;;;4.65;0.70;;;31.50;99.90;;;;;;5141843;28;20034;-62
2022/06/21 13:04:00;;;;;;;0.43;0.43;;;30.30;99.90;;;;;;5150053;28;20035;-61
2022/06/21 13:06:55;;;;;;;0.75;0.75;;;29.00;99.90;;;;;;5161397;28;20092;-60
2022/06/21 13:10:22;;;;;;;0.93;0.80;;;30.70;99.90;;;;;;5160871;28;20046;-64
2022/06/21 13:13:34;;;;;;;0.70;0.70;;;31.30;99.90;;;;;;5155373;28;20042;-62
2022/06/21 13:16:28;;;;;;;0.82;0.82;;;32.20;99.90;;;;;;5159108;28;20034;-62
2022/06/21 13:19:30;;;;;;;1.00;0.85;;;33.50;99.90;;;;;;5137492;28;20402;-63
2022/06/21 13:22:27;;;;;;;1.20;1.02;;;32.30;99.00;;;;;;5150139;28;20281;-61
2022/06/21 13:25:20;;;;;;;0.70;0.70;;;32.20;99.20;;;;;;5141406;28;20027;-63
2022/06/21 13:28:03;;;;;;;0.95;0.63;;;33.50;99.40;;;;;;5162693;28;20223;-62
2022/06/21 13:31:00;;;;;;;1.20;1.08;;;34.20;97.30;;;;;;5206267;28;20030;-61
2022/06/21 13:33:32;;;;;;;1.65;0.90;;;31.50;98.00;;;;;;5210806;28;20030;-61
2022/06/21 13:36:14;;;;;;;0.80;0.80;;;30.80;99.60;;;;;;5198485;28;20033;-62
2022/06/21 13:38:57;;;;;;;0.95;0.80;;;31.10;98.90;;;;;;5214386;28;20036;-62
2022/06/21 13:45:39;;;;;;;1.95;0.75;;;33.70;97.80;;;;;;5176770;28;20018;-60
2022/06/21 13:48:40;;;;;;;0.68;0.57;;;32.10;98.40;;;;;;5190588;28;20048;-62
2022/06/21 13:51:15;;;;;;;3.17;1.00;;;32.30;98.70;;;;;;5167636;28;20222;-62
2022/06/21 13:53:54;;;;;;;1.05;0.90;;;31.00;97.60;;;;;;5176542;28;20033;-61
2022/06/21 13:56:40;;;;;;;0.98;0.85;;;32.40;97.80;;;;;;5189553;28;20223;-61
2022/06/21 13:59:25;;;;;;;0.82;0.80;;;32.50;96.80;;;;;;5190197;28;20048;-62
2022/06/21 14:02:27;;;;;;;1.45;0.80;;;32.30;97.00;;;;;;5190038;28;20033;-63
2022/06/21 14:05:13;;;;;;;0.50;0.50;;;32.60;96.60;;;;;;5169080;28;20319;-63
2022/06/21 14:08:27;;;;;;;1.00;1.00;;;32.10;97.20;;;;;;5199086;28;20028;-62
2022/06/21 14:11:29;;;;;;;0.88;0.73;;;32.20;96.90;;;;;;5185805;28;20026;-63
2022/06/21 14:14:41;;;;;;;0.68;0.60;;;33.10;97.40;;;;;;5177544;28;20030;-61
2022/06/21 14:17:36;;;;;;;1.08;0.98;;;32.10;97.00;;;;;;5175172;28;20442;-61
2022/06/21 14:20:21;;;;;;;1.13;0.90;;;31.90;97.20;;;;;;5194027;28;20038;-61
2022/06/21 14:23:06;;;;;;;0.88;0.70;;;29.60;97.30;;;;;;5198269;28;20032;-62
2022/06/21 14:25:53;;;;;;;0.77;0.70;;;29.90;97.60;;;;;;5195507;28;20032;-62
2022/06/21 14:29:12;;;;;;;0.73;0.70;;;30.80;97.70;;;;;;5186331;28;20026;-63
2022/06/21 14:31:56;;;;;;;1.00;0.90;;;31.40;96.90;;;;;;5195398;28;20038;-61
2022/06/21 14:34:43;;;;;;;0.88;0.75;;;30.70;97.10;;;;;;5181111;28;20030;-61
2022/06/21 14:37:24;;;;;;;0.60;0.60;;;30.80;96.50;;;;;;5193068;28;20337;-61
2022/06/21 14:40:20;;;;;;;0.60;0.60;;;30.60;96.60;;;;;;5190696;28;20231;-63
2022/06/21 14:42:54;;;;;;;0.70;0.70;;;30.80;95.90;;;;;;5191032;28;20239;-60
2022/06/21 14:45:46;;;;;;;;;;;30.60;96.60;;;;;;5193821;28;20029;-60
2022/06/21 14:48:31;;;;;;;0.70;0.70;;;31.40;96.10;;;;;;5212971;28;19909;-60
2022/06/21 14:51:17;;;;;;;1.05;0.90;;;31.70;95.30;;;;;;5196251;28;20032;-62
2022/06/21 14:54:44;;;;;;;0.93;0.93;;;32.20;95.90;;;;;;5197994;28;20036;-62
2022/06/21 14:57:30;;;;;;;1.77;0.80;;;33.90;94.30;;;;;;5195750;28;20337;-61
2022/06/21 15:00:14;;;;;;;0.60;0.60;;;32.90;95.10;;;;;;5196630;28;20026;-60
2022/06/21 15:03:05;;;;;;;0.98;0.73;;;32.50;94.20;;;;;;5196636;28;20200;-62
2022/06/21 15:06:00;;;;;;;0.70;0.70;;;32.60;95.90;;;;;;5178050;28;20053;-62
2022/06/21 15:08:43;;;;;;;0.65;0.65;;;32.10;93.90;;;;;;5173036;28;20030;-64
2022/06/21 15:11:52;;;;;;;0.55;0.55;;;31.00;94.90;;;;;;5171223;28;20042;-62
2022/06/21 15:14:37;;;;;;;0.73;0.60;;;31.70;95.00;;;;;;5175119;28;20052;-63
2022/06/21 15:17:19;;;;;;;0.90;0.90;;;31.30;94.90;;;;;;5178966;28;20358;-63